createdAt,value
2022-08-11T00:01:18.165Z,101315.91
2022-08-11T00:03:54.043Z,101322.94
2022-08-11T00:06:28.980Z,101320.34
2022-08-11T00:08:58.787Z,101314.19
2022-08-11T00:11:36.182Z,101310.69
2022-08-11T00:14:14.566Z,101312.47
2022-08-11T00:16:54.145Z,101307.22
2022-08-11T00:20:12.863Z,101317.78
2022-08-11T00:22:22.424Z,101317.78
2022-08-11T00:24:53.978Z,101313.41
2022-08-11T00:27:33.373Z,101317.84
2022-08-11T00:30:02.099Z,101316.97
2022-08-11T00:32:33.239Z,101324.00
2022-08-11T00:35:53.887Z,101313.47
2022-08-11T00:37:56.044Z,101311.72
2022-08-11T00:40:37.406Z,101317.88
2022-08-11T00:43:24.714Z,101317.88
2022-08-11T00:46:15.139Z,101323.16
2022-08-11T00:49:16.864Z,101323.19
2022-08-11T00:52:08.533Z,101324.94
2022-08-11T00:55:23.757Z,101329.34
2022-08-11T00:58:45.065Z,101324.97
2022-08-11T01:01:34.420Z,101317.94
2022-08-11T01:04:55.867Z,101322.34
2022-08-11T01:08:25.378Z,101317.97
2022-08-11T01:11:23.265Z,101316.19
2022-08-11T01:14:50.065Z,101325.84
2022-08-11T01:18:21.846Z,101322.34
2022-08-11T01:21:55.195Z,101326.75
2022-08-11T01:25:21.794Z,101321.50
2022-08-11T01:28:38.810Z,101321.47
2022-08-11T01:32:02.049Z,101325.00
2022-08-11T01:35:21.940Z,101325.00
2022-08-11T01:38:34.919Z,101319.75
2022-08-11T01:41:51.891Z,101319.75
2022-08-11T01:45:07.388Z,101312.72
2022-08-11T01:47:54.323Z,101311.84
2022-08-11T01:51:03.349Z,101314.50
2022-08-11T01:53:59.449Z,101318.00
2022-08-11T01:56:38.303Z,101323.25
2022-08-11T01:59:17.530Z,101314.50
2022-08-11T02:02:41.975Z,101319.78
2022-08-11T02:05:26.768Z,101315.41
2022-08-11T02:08:21.449Z,101316.28
2022-08-11T02:11:31.107Z,101327.69
2022-08-11T02:14:22.296Z,101322.41
2022-08-11T02:17:09.771Z,101323.31
2022-08-11T02:20:12.895Z,101321.53
2022-08-11T02:23:14.047Z,101328.56
2022-08-11T02:26:14.570Z,101321.53
2022-08-11T02:28:59.936Z,101319.81
2022-08-11T02:32:24.539Z,101328.56
2022-08-11T02:35:05.088Z,101325.06
2022-08-11T02:37:51.805Z,101318.94
2022-08-11T02:40:34.718Z,101319.78
2022-08-11T02:43:13.308Z,101323.31
2022-08-11T02:45:59.965Z,101327.69
2022-08-11T02:49:11.398Z,101324.19
2022-08-11T02:52:00.556Z,101325.00
2022-08-11T02:54:44.870Z,101324.13
2022-08-11T02:57:21.227Z,101325.00
2022-08-11T02:59:58.274Z,101322.38
2022-08-11T03:03:00.122Z,101326.75
2022-08-11T03:05:45.380Z,101317.97
2022-08-11T03:08:33.827Z,101330.22
2022-08-11T03:11:31.267Z,101332.81
2022-08-11T03:14:35.471Z,101330.16
2022-08-11T03:17:23.997Z,101337.13
2022-08-11T03:20:08.838Z,101336.22
2022-08-11T03:22:52.183Z,101337.06
2022-08-11T03:25:32.409Z,101330.88
2022-08-11T03:28:14.407Z,101336.94
2022-08-11T03:30:53.526Z,101328.16
2022-08-11T03:33:47.809Z,101325.53
2022-08-11T03:37:16.527Z,101329.88
2022-08-11T03:40:04.361Z,101335.97
2022-08-11T03:42:56.075Z,101345.56
2022-08-11T03:45:41.667Z,101327.16
2022-08-11T03:48:19.909Z,101331.53
2022-08-11T03:51:06.285Z,101331.53
2022-08-11T03:54:04.919Z,101322.78
2022-08-11T03:57:25.509Z,101328.00
2022-08-11T04:00:39.124Z,101326.25
2022-08-11T04:03:51.690Z,101328.84
2022-08-11T04:07:10.949Z,101334.13
2022-08-11T04:10:28.709Z,101333.19
2022-08-11T04:13:58.136Z,101328.81
2022-08-11T04:16:53.182Z,101327.97
2022-08-11T04:20:11.897Z,101327.13
2022-08-11T04:24:13.099Z,101323.63
2022-08-11T04:26:47.516Z,101321.84
2022-08-11T04:30:03.450Z,101330.50
2022-08-11T04:33:25.766Z,101317.31
2022-08-11T04:36:10.127Z,101312.91
2022-08-11T04:39:08.617Z,101315.50
2022-08-11T04:42:44.260Z,101314.66
2022-08-11T04:45:46.246Z,101320.75
2022-08-11T04:49:09.841Z,101318.97
2022-08-11T04:52:37.585Z,101317.22
2022-08-11T04:56:13.967Z,101317.22
2022-08-11T04:59:27.329Z,101324.28
2022-08-11T05:02:38.179Z,101324.38
2022-08-11T05:05:31.107Z,101324.44
2022-08-11T05:09:00.764Z,101317.53
2022-08-11T05:11:57.987Z,101316.81
2022-08-11T05:14:56.317Z,101323.06
2022-08-11T05:17:55.465Z,101312.69
2022-08-11T05:20:45.589Z,101308.34
2022-08-11T05:23:35.384Z,101320.69
2022-08-11T05:26:47.915Z,101324.16
2022-08-11T05:29:59.220Z,101318.84
2022-08-11T05:33:00.886Z,101319.53
2022-08-11T05:36:00.380Z,101314.94
2022-08-11T05:38:53.489Z,101312.97
2022-08-11T05:41:44.772Z,101315.38
2022-08-11T05:44:39.217Z,101317.81
2022-08-11T05:47:28.445Z,101318.56
2022-08-11T05:50:16.889Z,101320.91
2022-08-11T05:53:19.866Z,101320.69
2022-08-11T05:56:09.365Z,101315.97
2022-08-11T05:58:42.939Z,101312.22
2022-08-11T06:01:14.165Z,101321.88
2022-08-11T06:04:08.600Z,101324.28
2022-08-11T06:06:45.153Z,101316.16
2022-08-11T06:09:14.734Z,101315.00
2022-08-11T06:11:45.123Z,101313.00
2022-08-11T06:14:15.523Z,101317.25
2022-08-11T06:16:49.600Z,101319.91
2022-08-11T06:19:30.912Z,101322.53
2022-08-11T06:22:01.521Z,101314.34
2022-08-11T06:24:32.280Z,101313.19
2022-08-11T06:27:18.619Z,101315.41
2022-08-11T06:29:54.894Z,101309.94
2022-08-11T06:32:28.684Z,101321.50
2022-08-11T06:35:14.016Z,101320.22
2022-08-11T06:37:59.041Z,101319.19
2022-08-11T06:40:37.086Z,101318.06
2022-08-11T06:43:18.541Z,101320.97
2022-08-11T06:45:57.763Z,101319.94
2022-08-11T06:48:26.369Z,101318.38
2022-08-11T06:51:12.315Z,101323.78
2022-08-11T06:53:56.332Z,101321.75
2022-08-11T06:57:12.521Z,101320.50
2022-08-11T07:00:03.584Z,101324.25
2022-08-11T07:02:37.080Z,101323.28
2022-08-11T07:05:20.247Z,101328.41
2022-08-11T07:09:11.843Z,101319.66
2022-08-11T07:12:19.816Z,101315.72
2022-08-11T07:15:11.532Z,101305.03
2022-08-11T07:17:49.286Z,101304.84
2022-08-11T07:20:37.184Z,101307.59
2022-08-11T07:23:28.903Z,101312.38
2022-08-11T07:26:21.014Z,101309.19
2022-08-11T07:28:57.970Z,101305.22
2022-08-11T07:31:34.090Z,101308.53
2022-08-11T07:34:21.554Z,101309.00
2022-08-11T07:36:55.573Z,101313.81
2022-08-11T07:39:27.878Z,101301.28
2022-08-11T07:42:00.351Z,101306.22
2022-08-11T07:44:34.789Z,101308.56
2022-08-11T07:47:22.999Z,101312.53
2022-08-11T07:50:12.682Z,101312.81
2022-08-11T07:52:42.580Z,101311.81
2022-08-11T07:55:17.116Z,101308.13
2022-08-11T07:58:16.476Z,101303.63
2022-08-11T08:01:21.613Z,101298.38
2022-08-11T08:04:11.591Z,101304.50
2022-08-11T08:06:59.572Z,101297.41
2022-08-11T08:09:47.432Z,101306.84
2022-08-11T08:12:35.486Z,101296.69
2022-08-11T08:15:28.783Z,101294.81
2022-08-11T08:18:20.556Z,101303.19
2022-08-11T08:20:51.615Z,101296.47
2022-08-11T08:23:33.050Z,101301.25
2022-08-11T08:26:05.921Z,101298.16
2022-08-11T08:28:46.516Z,101302.97
2022-08-11T08:31:16.368Z,101302.38
2022-08-11T08:33:45.313Z,101302.66
2022-08-11T08:36:16.921Z,101299.22
2022-08-11T08:38:49.894Z,101297.19
2022-08-11T08:41:23.135Z,101304.13
2022-08-11T08:43:56.424Z,101304.28
2022-08-11T08:46:34.825Z,101300.81
2022-08-11T08:49:05.613Z,101296.50
2022-08-11T08:51:58.730Z,101289.03
2022-08-11T08:54:37.027Z,101285.56
2022-08-11T08:57:09.067Z,101289.19
2022-08-11T08:59:47.645Z,101290.94
2022-08-11T09:02:34.680Z,101297.78
2022-08-11T09:05:18.091Z,101297.41
2022-08-11T09:07:54.038Z,101299.16
2022-08-11T09:10:25.166Z,101293.78
2022-08-11T09:12:53.504Z,101299.09
2022-08-11T09:15:24.201Z,101301.94
2022-08-11T09:18:10.032Z,101297.53
2022-08-11T09:20:39.524Z,101294.69
2022-08-11T09:24:07.427Z,101293.69
2022-08-11T09:26:37.584Z,101285.13
2022-08-11T09:29:08.456Z,101291.19
2022-08-11T09:31:40.261Z,101287.44
2022-08-11T09:34:11.549Z,101296.28
2022-08-11T09:37:06.173Z,101291.47
2022-08-11T09:39:56.197Z,101288.00
2022-08-11T09:42:48.559Z,101286.47
2022-08-11T09:45:18.501Z,101280.16
2022-08-11T09:47:48.219Z,101278.34
2022-08-11T09:50:18.465Z,101281.00
2022-08-11T09:53:16.955Z,101285.03
2022-08-11T09:55:39.929Z,101278.59
2022-08-11T09:58:42.288Z,101274.75
2022-08-11T10:01:03.853Z,101271.00
2022-08-11T10:03:40.324Z,101269.22
2022-08-11T10:06:34.276Z,101268.22
2022-08-11T10:09:06.943Z,101265.06
2022-08-11T10:11:38.752Z,101270.53
2022-08-11T10:14:34.017Z,101258.56
2022-08-11T10:17:09.088Z,101255.75
2022-08-11T10:19:40.433Z,101255.28
2022-08-11T10:22:32.987Z,101255.28
2022-08-11T10:25:21.535Z,101252.94
2022-08-11T10:28:30.521Z,101243.47
2022-08-11T10:31:06.935Z,101252.09
2022-08-11T10:34:03.502Z,101246.44
2022-08-11T10:36:34.680Z,101242.78
2022-08-11T10:39:06.624Z,101241.94
2022-08-11T10:42:06.079Z,101228.75
2022-08-11T10:44:42.119Z,101230.50
2022-08-11T10:47:34.330Z,101231.69
2022-08-11T10:50:26.145Z,101234.69
2022-08-11T10:53:16.190Z,101225.81
2022-08-11T10:56:17.598Z,101226.16
2022-08-11T10:58:52.564Z,101233.97
2022-08-11T11:01:25.299Z,101228.78
2022-08-11T11:03:58.944Z,101224.53
2022-08-11T11:06:44.822Z,101226.13
2022-08-11T11:09:18.530Z,101216.03
2022-08-11T11:12:13.053Z,101224.38
2022-08-11T11:15:01.569Z,101224.66
2022-08-11T11:17:56.743Z,101219.13
2022-08-11T11:20:36.749Z,101212.72
2022-08-11T11:23:18.483Z,101218.97
2022-08-11T11:26:32.011Z,101209.59
2022-08-11T11:29:46.207Z,101211.44
2022-08-11T11:32:28.247Z,101212.88
2022-08-11T11:35:31.250Z,101204.53
2022-08-11T11:38:04.831Z,101200.72
2022-08-11T11:40:34.819Z,101197.00
2022-08-11T11:43:05.244Z,101192.06
2022-08-11T11:45:35.241Z,101191.72
2022-08-11T11:48:04.186Z,101190.84
2022-08-11T11:50:38.660Z,101187.97
2022-08-11T11:53:10.606Z,101176.94
2022-08-11T11:55:43.533Z,101182.09
2022-08-11T11:58:32.136Z,101181.28
2022-08-11T12:01:19.779Z,101180.97
2022-08-11T12:03:52.727Z,101166.53
2022-08-11T12:06:28.241Z,101153.25
2022-08-11T12:08:58.690Z,101150.03
2022-08-11T12:11:50.333Z,101139.59
2022-08-11T12:14:21.094Z,101154.22
2022-08-11T12:16:51.326Z,101140.19
2022-08-11T12:19:35.917Z,101148.25
2022-08-11T12:22:23.220Z,101126.16
2022-08-11T12:25:11.581Z,101135.91
2022-08-11T12:27:41.803Z,101129.44
2022-08-11T12:30:12.938Z,101128.41
2022-08-11T12:32:44.295Z,101125.03
2022-08-11T12:35:15.989Z,101126.34
2022-08-11T12:37:49.247Z,101127.91
2022-08-11T12:41:12.038Z,101127.81
2022-08-11T12:43:57.007Z,101128.41
2022-08-11T12:46:34.455Z,101121.59
2022-08-11T12:49:31.310Z,101118.28
2022-08-11T12:52:14.760Z,101117.88
2022-08-11T12:54:56.301Z,101112.44
2022-08-11T12:57:49.135Z,101108.78
2022-08-11T13:00:39.549Z,101098.78
2022-08-11T13:03:29.612Z,101101.06
2022-08-11T13:06:03.839Z,101098.78
2022-08-11T13:08:38.417Z,101096.94
2022-08-11T13:11:56.980Z,101099.06
2022-08-11T13:14:17.030Z,101087.28
2022-08-11T13:17:05.518Z,101087.09
2022-08-11T13:19:34.851Z,101092.41
2022-08-11T13:22:07.300Z,101080.97
2022-08-11T13:24:36.578Z,101085.78
2022-08-11T13:27:05.628Z,101082.78
2022-08-11T13:29:36.711Z,101079.69
2022-08-11T13:32:06.553Z,101079.00
2022-08-11T13:34:41.560Z,101079.03
2022-08-11T13:37:14.600Z,101082.84
2022-08-11T13:39:48.683Z,101082.25
2022-08-11T13:42:20.898Z,101079.28
2022-08-11T13:44:49.628Z,101075.94
2022-08-11T13:47:18.882Z,101075.94
2022-08-11T13:49:47.888Z,101064.00
2022-08-11T13:52:19.424Z,101057.63
2022-08-11T13:54:51.135Z,101060.59
2022-08-11T13:58:08.205Z,101059.44
2022-08-11T14:00:13.210Z,101064.59
2022-08-11T14:02:57.209Z,101059.38
2022-08-11T14:05:29.741Z,101054.59
2022-08-11T14:08:38.205Z,101053.78
2022-08-11T14:12:21.751Z,101056.53
2022-08-11T14:14:21.276Z,101049.50
2022-08-11T14:16:57.937Z,101048.84
2022-08-11T14:19:29.936Z,101044.81
2022-08-11T14:22:09.129Z,101049.28
2022-08-11T14:24:43.460Z,101044.28
2022-08-11T14:28:30.552Z,101052.13
2022-08-11T14:30:05.372Z,101046.06
2022-08-11T14:32:33.842Z,101048.31
2022-08-11T14:35:05.371Z,101031.44
2022-08-11T14:37:33.636Z,101036.06
2022-08-11T14:40:24.312Z,101035.09
2022-08-11T14:43:21.860Z,101036.28
2022-08-11T14:46:29.003Z,101035.28
2022-08-11T14:49:01.786Z,101039.78
2022-08-11T14:51:30.739Z,101030.63
2022-08-11T14:54:20.222Z,101034.28
2022-08-11T14:56:54.721Z,101028.00
2022-08-11T14:59:26.688Z,101027.31
2022-08-11T15:02:13.658Z,101027.41
2022-08-11T15:04:46.460Z,101024.97
2022-08-11T15:07:17.378Z,101021.72
2022-08-11T15:10:10.146Z,101014.44
2022-08-11T15:12:41.853Z,101023.03
2022-08-11T15:15:31.585Z,101014.25
2022-08-11T15:18:06.890Z,101013.00
2022-08-11T15:20:53.963Z,101014.44
2022-08-11T15:23:40.886Z,101007.25
2022-08-11T15:26:15.507Z,101001.13
2022-08-11T15:29:10.322Z,100997.56
2022-08-11T15:31:44.246Z,100998.91
2022-08-11T15:34:40.831Z,100992.84
2022-08-11T15:37:26.830Z,100990.13
2022-08-11T15:40:32.899Z,100982.28
2022-08-11T15:43:29.320Z,100990.25
2022-08-11T15:46:08.247Z,100980.75
2022-08-11T15:48:48.138Z,100982.09
2022-08-11T15:51:27.346Z,100976.53
2022-08-11T15:54:07.117Z,100974.78
2022-08-11T15:56:44.065Z,100974.56
2022-08-11T15:59:41.897Z,100976.16
2022-08-11T16:02:35.877Z,100978.50
2022-08-11T16:05:13.303Z,100976.03
2022-08-11T16:07:49.049Z,100980.53
2022-08-11T16:10:23.237Z,100969.28
2022-08-11T16:13:05.717Z,100969.22
2022-08-11T16:15:57.066Z,100974.31
2022-08-11T16:18:40.603Z,100967.38
2022-08-11T16:21:33.993Z,100959.66
2022-08-11T16:24:05.954Z,100959.97
2022-08-11T16:27:08.488Z,100953.41
2022-08-11T16:29:32.184Z,100957.66
2022-08-11T16:32:18.471Z,100961.69
2022-08-11T16:35:15.843Z,100963.50
2022-08-11T16:38:04.752Z,100957.88
2022-08-11T16:40:34.933Z,100946.75
2022-08-11T16:43:28.573Z,100947.09
2022-08-11T16:46:16.830Z,100947.84
2022-08-11T16:48:49.388Z,100946.06
2022-08-11T16:51:20.908Z,100951.66
2022-08-11T16:54:05.536Z,100954.09
2022-08-11T16:56:41.827Z,100951.66
2022-08-11T16:59:17.883Z,100944.66
2022-08-11T17:01:55.542Z,100952.72
2022-08-11T17:04:54.268Z,100950.66
2022-08-11T17:07:44.842Z,100951.00
2022-08-11T17:10:53.242Z,100952.78
2022-08-11T17:13:32.813Z,100954.50
2022-08-11T17:16:12.411Z,100946.09
2022-08-11T17:18:57.075Z,100948.44
2022-08-11T17:21:29.843Z,100941.97
2022-08-11T17:24:08.431Z,100944.41
2022-08-11T17:26:55.822Z,100947.84
2022-08-11T17:29:32.645Z,100936.75
2022-08-11T17:32:25.549Z,100932.16
2022-08-11T17:35:19.762Z,100937.00
2022-08-11T17:37:50.325Z,100943.72
2022-08-11T17:40:24.518Z,100937.88
2022-08-11T17:43:15.018Z,100937.56
2022-08-11T17:46:05.165Z,100948.31
2022-08-11T17:48:47.881Z,100938.25
2022-08-11T17:51:39.969Z,100946.03
2022-08-11T17:54:29.535Z,100941.91
2022-08-11T17:57:20.325Z,100939.66
2022-08-11T17:59:54.639Z,100939.41
2022-08-11T18:02:49.196Z,100943.03
2022-08-11T18:05:21.582Z,100937.34
2022-08-11T18:08:12.620Z,100934.69
2022-08-11T18:11:02.510Z,100942.91
2022-08-11T18:13:59.602Z,100940.44
2022-08-11T18:16:48.009Z,100949.06
2022-08-11T18:19:35.110Z,100950.16
2022-08-11T18:22:26.678Z,100949.84
2022-08-11T18:25:20.025Z,100955.78
2022-08-11T18:28:12.620Z,100964.66
2022-08-11T18:31:07.529Z,100955.44
2022-08-11T18:34:08.984Z,100952.81
2022-08-11T18:37:05.006Z,100950.56
2022-08-11T18:40:02.459Z,100954.03
2022-08-11T18:42:52.338Z,100950.06
2022-08-11T18:45:45.710Z,100957.50
2022-08-11T18:48:41.674Z,100957.06
2022-08-11T18:51:36.902Z,100963.72
2022-08-11T18:54:29.293Z,100966.53
2022-08-11T18:57:21.989Z,100970.44
2022-08-11T19:00:12.343Z,100970.91
2022-08-11T19:03:01.760Z,100971.53
2022-08-11T19:06:37.161Z,100982.88
2022-08-11T19:09:12.791Z,100981.63
2022-08-11T19:12:00.623Z,100982.09
2022-08-11T19:14:53.618Z,100981.88
2022-08-11T19:17:45.941Z,100988.78
2022-08-11T19:20:39.038Z,100999.09
2022-08-11T19:23:31.656Z,100993.56
2022-08-11T19:26:21.899Z,100989.75
2022-08-11T19:30:05.280Z,100994.88
2022-08-11T19:32:18.617Z,100990.19
2022-08-11T19:35:07.678Z,100990.78
2022-08-11T19:37:56.765Z,100991.22
2022-08-11T19:40:46.666Z,100995.34
2022-08-11T19:43:36.721Z,101008.13
2022-08-11T19:46:27.063Z,101008.44
2022-08-11T19:49:20.881Z,101013.03
2022-08-11T19:52:09.431Z,101011.44
2022-08-11T19:54:59.577Z,101017.88
2022-08-11T19:57:49.707Z,101009.38
2022-08-11T20:00:39.177Z,101009.78
2022-08-11T20:03:30.673Z,101008.31
2022-08-11T20:06:22.164Z,101015.75
2022-08-11T20:09:12.540Z,101008.97
2022-08-11T20:12:06.048Z,101004.88
2022-08-11T20:14:59.065Z,101007.84
2022-08-11T20:17:52.000Z,101006.25
2022-08-11T20:20:43.399Z,101013.50
2022-08-11T20:23:34.820Z,101014.63
2022-08-11T20:26:31.540Z,101017.44
2022-08-11T20:29:19.889Z,101014.09
2022-08-11T20:32:09.624Z,101013.34
2022-08-11T20:34:58.865Z,101014.44
2022-08-11T20:37:51.306Z,101013.69
2022-08-11T20:40:43.924Z,101018.31
2022-08-11T20:44:08.562Z,101004.34
2022-08-11T20:46:44.265Z,101011.56
2022-08-11T20:49:41.272Z,101015.19
2022-08-11T20:52:41.793Z,101008.19
2022-08-11T20:55:52.212Z,101016.22
2022-08-11T20:59:13.229Z,101015.41
2022-08-11T21:01:52.053Z,101017.28
2022-08-11T21:04:54.316Z,101033.28
2022-08-11T21:07:55.159Z,101028.94
2022-08-11T21:10:46.723Z,101026.28
2022-08-11T21:13:36.947Z,101028.88
2022-08-11T21:16:27.735Z,101026.22
2022-08-11T21:20:01.737Z,101031.53
2022-08-11T21:22:38.913Z,101029.75
2022-08-11T21:25:32.242Z,101022.78
2022-08-11T21:28:24.723Z,101030.84
2022-08-11T21:31:14.632Z,101026.56
2022-08-11T21:34:03.743Z,101035.41
2022-08-11T21:36:52.697Z,101031.13
2022-08-11T21:39:44.804Z,101032.06
2022-08-11T21:42:33.375Z,101036.63
2022-08-11T21:45:21.609Z,101029.69
2022-08-11T21:48:09.572Z,101029.75
2022-08-11T21:50:56.306Z,101026.31
2022-08-11T21:53:44.755Z,101028.22
2022-08-11T21:56:34.327Z,101028.34
2022-08-11T21:59:21.058Z,101033.78
2022-08-11T22:02:12.545Z,101031.28
2022-08-11T22:05:00.949Z,101037.59
2022-08-11T22:07:48.725Z,101031.47
2022-08-11T22:10:42.160Z,101036.84
2022-08-11T22:13:32.026Z,101036.09
2022-08-11T22:16:18.790Z,101021.28
2022-08-11T22:19:09.584Z,101021.28
2022-08-11T22:22:02.661Z,101025.81
2022-08-11T22:24:52.995Z,101030.41
2022-08-11T22:27:40.804Z,101022.47
2022-08-11T22:30:30.667Z,101019.88
2022-08-11T22:33:25.727Z,101020.09
2022-08-11T22:36:17.040Z,101026.25
2022-08-11T22:39:07.413Z,101020.09
2022-08-11T22:41:54.944Z,101023.78
2022-08-11T22:44:41.592Z,101021.22
2022-08-11T22:47:38.305Z,101018.63
2022-08-11T22:50:30.703Z,101022.19
2022-08-11T22:53:19.791Z,101022.19
2022-08-11T22:56:08.346Z,101021.34
2022-08-11T22:58:55.090Z,101020.53
2022-08-11T23:01:56.301Z,101022.34
2022-08-11T23:04:53.129Z,101017.13
2022-08-11T23:07:51.534Z,101022.50
2022-08-11T23:10:39.270Z,101019.06
2022-08-11T23:13:27.803Z,101019.22
2022-08-11T23:16:16.429Z,101021.88
2022-08-11T23:19:04.448Z,101022.84
2022-08-11T23:21:53.255Z,101018.41
2022-08-11T23:24:41.078Z,101019.34
2022-08-11T23:27:29.133Z,101014.06
2022-08-11T23:30:19.199Z,101012.41
2022-08-11T23:33:10.116Z,101010.66
2022-08-11T23:36:03.600Z,101014.31
2022-08-11T23:38:54.185Z,101003.88
2022-08-11T23:41:41.867Z,101011.88
2022-08-11T23:44:28.328Z,101010.25
2022-08-11T23:47:18.514Z,101005.84
2022-08-11T23:50:06.519Z,101002.34
2022-08-11T23:52:54.574Z,101002.41
2022-08-11T23:55:42.307Z,101007.75
2022-08-11T23:58:30.707Z,100997.28
